Rochester, Iowa
Current Conditions -  °F | °C
As of 12:52 PM on Saturday 20 Dec 2014 (Local Time) from KIOW Reporting Station
Haze Haze  
Wind Chill: 26°   Ceiling: 800
Heat Index: 33°   Visibility: 4mi
Dew Point: 29°   Wind: 8mph
Humidity: 85%   Direction: 140°SE
Pressure: 30.21"   Gusts: NA
Location:  41.7563°N, 91.1443°W
Report Text: KIOW 201852Z AUTO 14007KT 4SM BR OVC008 01/M02 A3021 RMK AO2 SNB37E46 SLP236 P0000 T00061017
Loading
Personal Weather Stations






























Interactive Weather Map New forecast layout! Learn more

10-Day Weather Forecast

Advertisements
Track Severe Weather on mobile